Time;durP1;ratioP1;P1;durP2;ratioP2;P2;SDS_P1;SDS_P2;PMS_P1;PMS_P2;Temp;Humidity;BMP_temperature;BMP_pressure;BME280_temperature;BME280_humidity;BME280_pressure;Samples;Min_cycle;Max_cycle;Signal;HPM_P1;HPM_P2
2021/04/02 00:01:43;;;;;;;14.80;8.00;;;;;;;;;;5055650;28;20447;-96
2021/04/02 00:04:24;;;;;;;12.50;7.90;;;;;;;;;;5055091;28;20456;-96
2021/04/02 00:06:54;;;;;;;12.10;7.80;;;;;;;;;;5130320;23;21996;-96
2021/04/02 00:09:20;;;;;;;12.20;8.40;;;;;;;;;;4985822;28;20456;-96
2021/04/02 00:11:47;;;;;;;16.57;8.90;;;;;;;;;;5009653;28;20453;-96
2021/04/02 00:14:13;;;;;;;14.70;8.90;;;;;;;;;;5004225;28;20456;-96
2021/04/02 00:16:39;;;;;;;16.37;10.10;;;;;;;;;;5004193;28;20452;-96
2021/04/02 00:19:06;;;;;;;10.00;9.00;;;;;;;;;;5002823;28;20489;-96
2021/04/02 00:21:32;;;;;;;14.37;9.60;;;;;;;;;;5005005;28;20540;-96
2021/04/02 00:23:59;;;;;;;18.43;11.67;;;;;;;;;;4994891;28;20478;-96
2021/04/02 00:26:28;;;;;;;16.30;10.03;;;;;;;;;;5006920;28;20468;-95
2021/04/02 00:28:55;;;;;;;13.07;9.70;;;;;;;;;;5015501;28;20468;-95
2021/04/02 00:31:21;;;;;;;12.37;8.77;;;;;;;;;;5011003;28;20452;-95
2021/04/02 00:33:47;;;;;;;15.00;9.80;;;;;;;;;;4991778;28;20827;-94
2021/04/02 00:36:13;;;;;;;13.10;9.80;;;;;;;;;;4998684;28;20462;-94
2021/04/02 00:38:40;;;;;;;19.80;10.43;;;;;;;;;;5018573;28;20490;-96
2021/04/02 00:41:08;;;;;;;11.80;9.10;;;;;;;;;;4991851;28;20464;-95
2021/04/02 00:43:35;;;;;;;13.10;9.27;;;;;;;;;;5013100;28;20463;-95
2021/04/02 00:46:01;;;;;;;13.23;9.27;;;;;;;;;;5010445;28;20777;-96
2021/04/02 00:48:27;;;;;;;13.53;9.27;;;;;;;;;;4996736;28;20860;-96
2021/04/02 00:50:55;;;;;;;14.10;9.13;;;;;;;;;;4987801;28;20460;-96
2021/04/02 00:53:21;;;;;;;17.27;10.27;;;;;;;;;;5000452;28;21104;-96
2021/04/02 00:55:48;;;;;;;16.20;10.70;;;;;;;;;;4992599;28;20461;-96
2021/04/02 00:58:16;;;;;;;12.13;9.37;;;;;;;;;;4997004;28;20537;-96
2021/04/02 01:00:43;;;;;;;16.10;9.77;;;;;;;;;;5017384;28;20441;-96
2021/04/02 01:03:10;;;;;;;17.07;9.60;;;;;;;;;;5002594;28;20540;-95
2021/04/02 01:05:39;;;;;;;15.77;9.90;;;;;;;;;;4988793;28;20509;-96
2021/04/02 01:08:06;;;;;;;13.97;9.90;;;;;;;;;;4993433;28;20486;-93
2021/04/02 01:10:34;;;;;;;13.73;10.30;;;;;;;;;;4991824;28;20464;-95
2021/04/02 01:13:00;;;;;;;14.77;10.07;;;;;;;;;;4988630;28;20475;-94
2021/04/02 01:15:30;;;;;;;15.80;10.50;;;;;;;;;;4978649;28;20453;-94
2021/04/02 01:17:59;;;;;;;15.15;10.18;;;;;;;;;;4991843;28;20494;-96
2021/04/02 01:20:26;;;;;;;15.73;10.93;;;;;;;;;;5005738;28;20198;-96
2021/04/02 01:22:53;;;;;;;15.20;10.50;;;;;;;;;;5002209;28;20294;-96
2021/04/02 01:25:43;;;;;;;14.20;10.47;;;;;;;;;;4995838;28;20534;-96
2021/04/02 01:28:28;;;;;;;13.10;9.27;;;;;;;;;;4991244;28;20464;-96
2021/04/02 01:30:56;;;;;;;14.33;10.50;;;;;;;;;;5003195;28;20203;-96
2021/04/02 01:33:23;;;;;;;13.43;9.90;;;;;;;;;;4995169;28;20533;-95
2021/04/02 01:35:50;;;;;;;14.32;9.40;;;;;;;;;;5007353;28;20443;-94
2021/04/02 01:38:18;;;;;;;15.07;10.23;;;;;;;;;;4988582;28;20228;-96
2021/04/02 01:40:45;;;;;;;13.60;10.07;;;;;;;;;;4993808;28;21025;-96
2021/04/02 01:43:13;;;;;;;17.63;11.00;;;;;;;;;;4988795;28;20214;-96
2021/04/02 01:45:40;;;;;;;14.77;10.45;;;;;;;;;;4990984;28;20208;-95
2021/04/02 01:48:08;;;;;;;17.85;10.07;;;;;;;;;;4989079;28;20213;-94
2021/04/02 01:50:36;;;;;;;12.60;9.17;;;;;;;;;;4995314;28;20216;-96
2021/04/02 01:53:04;;;;;;;15.18;10.00;;;;;;;;;;5001074;28;20472;-95
2021/04/02 01:55:30;;;;;;;14.10;10.00;;;;;;;;;;5003263;28;20220;-96
2021/04/02 01:57:57;;;;;;;16.25;9.30;;;;;;;;;;4987763;28;20484;-96
2021/04/02 02:00:24;;;;;;;14.77;10.00;;;;;;;;;;5003369;28;20593;-96
2021/04/02 02:02:51;;;;;;;20.55;10.80;;;;;;;;;;4997556;28;20447;-96
2021/04/02 02:05:19;;;;;;;13.95;9.73;;;;;;;;;;4996955;28;20213;-96
2021/04/02 02:07:47;;;;;;;14.77;9.45;;;;;;;;;;4997445;28;20646;-96
2021/04/02 02:10:16;;;;;;;14.52;9.38;;;;;;;;;;4999330;28;20204;-96
2021/04/02 02:12:43;;;;;;;15.70;9.73;;;;;;;;;;4994348;28;20206;-96
2021/04/02 02:15:10;;;;;;;14.63;10.13;;;;;;;;;;4999634;28;20212;-96
2021/04/02 02:17:36;;;;;;;15.30;11.18;;;;;;;;;;4998456;28;20453;-96
2021/04/02 02:20:06;;;;;;;17.70;10.00;;;;;;;;;;4990345;28;20212;-96
2021/04/02 02:22:33;;;;;;;18.73;10.20;;;;;;;;;;4987371;28;20466;-96
2021/04/02 02:24:59;;;;;;;12.48;9.23;;;;;;;;;;4999559;28;20698;-96
2021/04/02 02:27:25;;;;;;;18.67;11.38;;;;;;;;;;4998760;28;20212;-96
2021/04/02 02:29:52;;;;;;;16.35;11.27;;;;;;;;;;4990556;28;20211;-96
2021/04/02 02:32:18;;;;;;;16.08;11.70;;;;;;;;;;4969655;28;20248;-95
2021/04/02 02:34:44;;;;;;;18.63;12.32;;;;;;;;;;4998540;28;20219;-95
2021/04/02 02:37:11;;;;;;;18.92;12.52;;;;;;;;;;4987462;28;20211;-96
2021/04/02 02:39:38;;;;;;;17.02;11.60;;;;;;;;;;4992884;28;20281;-96
2021/04/02 02:42:05;;;;;;;15.20;10.93;;;;;;;;;;4990173;28;20267;-96
2021/04/02 02:44:31;;;;;;;20.77;13.98;;;;;;;;;;5006460;28;20233;-95
2021/04/02 02:47:00;;;;;;;25.95;16.67;;;;;;;;;;5006882;28;20196;-95
2021/04/02 02:49:28;;;;;;;18.92;14.40;;;;;;;;;;4998447;28;20214;-94
2021/04/02 02:51:56;;;;;;;22.20;14.80;;;;;;;;;;4990879;28;20883;-95
2021/04/02 02:54:23;;;;;;;32.60;21.00;;;;;;;;;;4986339;28;20216;-95
2021/04/02 02:56:52;;;;;;;28.38;20.25;;;;;;;;;;4994388;28;20880;-96
2021/04/02 02:59:20;;;;;;;30.98;20.58;;;;;;;;;;4993019;28;20246;-96
2021/04/02 03:01:47;;;;;;;29.05;20.55;;;;;;;;;;4996795;28;20202;-96
2021/04/02 03:04:15;;;;;;;29.45;19.40;;;;;;;;;;5002992;28;20242;-96
2021/04/02 03:06:42;;;;;;;22.55;17.05;;;;;;;;;;5000548;28;20218;-93
2021/04/02 03:09:10;;;;;;;27.30;17.77;;;;;;;;;;4993357;28;20227;-96
2021/04/02 03:11:36;;;;;;;25.65;16.73;;;;;;;;;;4994584;28;20217;-96
2021/04/02 03:14:04;;;;;;;26.27;18.67;;;;;;;;;;5000768;28;20216;-96
2021/04/02 03:16:31;;;;;;;21.05;15.48;;;;;;;;;;4992378;28;20207;-93
2021/04/02 03:18:58;;;;;;;20.48;14.05;;;;;;;;;;5006840;28;20235;-94
2021/04/02 03:21:25;;;;;;;21.83;12.10;;;;;;;;;;5008076;28;20190;-94
2021/04/02 03:23:52;;;;;;;15.63;11.43;;;;;;;;;;4996641;28;20197;-95
2021/04/02 03:26:19;;;;;;;17.58;11.98;;;;;;;;;;5011347;28;20197;-95
2021/04/02 03:28:45;;;;;;;16.10;12.32;;;;;;;;;;4989262;28;20216;-95
2021/04/02 03:31:13;;;;;;;23.17;13.82;;;;;;;;;;4981401;28;20365;-94
2021/04/02 03:33:41;;;;;;;19.35;13.02;;;;;;;;;;4993809;28;20215;-96
2021/04/02 03:36:09;;;;;;;25.67;15.05;;;;;;;;;;4985655;28;20216;-96
2021/04/02 03:38:36;;;;;;;24.02;15.30;;;;;;;;;;4983938;28;20236;-96
2021/04/02 03:41:04;;;;;;;19.83;13.90;;;;;;;;;;4993217;28;20204;-92
2021/04/02 03:43:31;;;;;;;21.08;13.63;;;;;;;;;;4995943;28;20263;-94
2021/04/02 03:45:59;;;;;;;19.05;12.80;;;;;;;;;;5002940;28;20219;-94
2021/04/02 03:48:26;;;;;;;17.52;12.48;;;;;;;;;;4995463;28;20221;-94
2021/04/02 03:50:54;;;;;;;17.33;12.02;;;;;;;;;;4986718;28;20262;-94
2021/04/02 03:53:22;;;;;;;19.43;12.40;;;;;;;;;;4987347;28;20231;-94
2021/04/02 03:55:49;;;;;;;28.25;14.02;;;;;;;;;;5001956;28;20437;-94
2021/04/02 03:58:16;;;;;;;23.20;15.95;;;;;;;;;;4998952;28;20214;-94
2021/04/02 04:00:43;;;;;;;17.75;14.00;;;;;;;;;;4989345;28;20224;-94
2021/04/02 04:03:11;;;;;;;22.27;14.82;;;;;;;;;;5000814;28;20215;-95
2021/04/02 04:05:38;;;;;;;20.80;14.52;;;;;;;;;;4997569;28;20231;-94
2021/04/02 04:08:07;;;;;;;22.95;15.55;;;;;;;;;;4998573;28;20237;-95
2021/04/02 04:10:34;;;;;;;22.23;15.63;;;;;;;;;;5001439;28;20214;-94
2021/04/02 04:13:01;;;;;;;23.75;15.77;;;;;;;;;;5000676;28;20202;-95
2021/04/02 04:15:28;;;;;;;24.42;15.88;;;;;;;;;;4993069;28;20236;-95
2021/04/02 04:17:54;;;;;;;25.10;17.08;;;;;;;;;;4992325;28;20225;-94
2021/04/02 04:20:21;;;;;;;29.35;18.30;;;;;;;;;;4992652;28;20208;-94
2021/04/02 04:22:48;;;;;;;25.88;18.38;;;;;;;;;;4984671;28;20240;-94
2021/04/02 04:25:15;;;;;;;25.45;17.27;;;;;;;;;;4996549;28;20268;-93
2021/04/02 04:27:42;;;;;;;27.30;17.80;;;;;;;;;;4996566;28;20211;-96
2021/04/02 04:30:10;;;;;;;24.70;16.20;;;;;;;;;;4989911;28;20467;-96
2021/04/02 04:32:36;;;;;;;32.88;16.67;;;;;;;;;;4996290;28;20452;-96
2021/04/02 04:35:03;;;;;;;29.73;17.02;;;;;;;;;;4989885;28;20219;-96
2021/04/02 04:37:29;;;;;;;20.13;15.23;;;;;;;;;;4993820;28;20211;-96
2021/04/02 04:39:57;;;;;;;24.88;15.00;;;;;;;;;;4993370;28;20236;-96
2021/04/02 04:42:23;;;;;;;24.20;15.88;;;;;;;;;;4993070;28;20256;-96
2021/04/02 04:44:50;;;;;;;34.97;22.88;;;;;;;;;;4992697;28;20211;-96
2021/04/02 04:47:17;;;;;;;29.30;18.27;;;;;;;;;;5001413;28;20207;-96
2021/04/02 04:49:44;;;;;;;25.67;16.20;;;;;;;;;;4995386;28;20212;-96
2021/04/02 04:52:11;;;;;;;29.38;16.33;;;;;;;;;;4993875;28;20208;-96
2021/04/02 04:54:38;;;;;;;26.80;17.33;;;;;;;;;;4979604;28;20201;-96
2021/04/02 04:57:06;;;;;;;30.05;18.50;;;;;;;;;;4993320;28;21034;-96
2021/04/02 04:59:33;;;;;;;25.15;15.80;;;;;;;;;;5002576;28;20230;-96
2021/04/02 05:01:59;;;;;;;21.30;14.45;;;;;;;;;;4992097;28;20208;-96
2021/04/02 05:04:26;;;;;;;21.13;13.80;;;;;;;;;;4994879;28;20212;-96
2021/04/02 05:06:55;;;;;;;25.10;14.23;;;;;;;;;;5000388;28;20187;-96
2021/04/02 05:09:28;;;;;;;21.27;14.45;;;;;;;;;;5011622;28;20203;-96
2021/04/02 05:11:56;;;;;;;20.80;13.60;;;;;;;;;;5013088;28;20198;-96
2021/04/02 05:14:26;;;;;;;22.42;14.77;;;;;;;;;;5000484;28;20207;-96
2021/04/02 05:16:53;;;;;;;22.95;16.10;;;;;;;;;;5003526;28;20225;-94
2021/04/02 05:19:19;;;;;;;26.08;19.13;;;;;;;;;;4996831;28;20239;-94
2021/04/02 05:21:46;;;;;;;27.15;17.42;;;;;;;;;;4993950;28;20621;-94
2021/04/02 05:24:12;;;;;;;26.87;17.50;;;;;;;;;;4992252;28;20216;-95
2021/04/02 05:27:01;;;;;;;31.30;18.40;;;;;;;;;;4999774;28;20434;-97
2021/04/02 05:29:28;;;;;;;28.95;17.65;;;;;;;;;;4996123;28;20234;-94
2021/04/02 05:31:55;;;;;;;32.17;19.48;;;;;;;;;;4997234;28;20244;-95
2021/04/02 05:34:21;;;;;;;28.38;18.00;;;;;;;;;;5005022;28;20206;-95
2021/04/02 05:36:47;;;;;;;33.00;19.35;;;;;;;;;;4990353;28;20216;-94
2021/04/02 05:39:13;;;;;;;25.27;15.73;;;;;;;;;;5001687;28;20225;-95
2021/04/02 05:41:44;;;;;;;32.57;17.97;;;;;;;;;;4994907;28;20432;-95
2021/04/02 05:44:11;;;;;;;25.42;17.17;;;;;;;;;;4990936;28;20448;-94
2021/04/02 05:46:40;;;;;;;24.17;16.97;;;;;;;;;;4996866;28;20258;-94
2021/04/02 05:49:06;;;;;;;26.90;16.43;;;;;;;;;;4976711;28;20474;-96
2021/04/02 05:51:33;;;;;;;25.67;16.63;;;;;;;;;;4999558;28;20462;-96
2021/04/02 05:53:59;;;;;;;24.17;16.40;;;;;;;;;;4998182;28;20206;-94
2021/04/02 05:56:26;;;;;;;24.83;15.60;;;;;;;;;;4996827;28;20460;-95
2021/04/02 05:58:56;;;;;;;26.93;15.47;;;;;;;;;;4991613;28;20489;-94
2021/04/02 06:01:22;;;;;;;23.73;15.90;;;;;;;;;;4995063;28;20464;-93
2021/04/02 06:03:49;;;;;;;24.33;14.93;;;;;;;;;;4987514;28;20220;-94
2021/04/02 06:06:15;;;;;;;24.30;14.50;;;;;;;;;;4995775;28;20521;-94
2021/04/02 06:08:43;;;;;;;16.67;11.73;;;;;;;;;;5001691;28;20486;-95
2021/04/02 06:11:09;;;;;;;15.70;11.93;;;;;;;;;;4997009;28;20963;-94
2021/04/02 06:13:35;;;;;;;22.20;15.00;;;;;;;;;;5003123;28;20441;-93
2021/04/02 06:16:01;;;;;;;18.93;14.80;;;;;;;;;;5011788;28;20488;-92
2021/04/02 06:18:27;;;;;;;23.27;14.50;;;;;;;;;;4994365;28;20481;-94
2021/04/02 06:20:55;;;;;;;20.67;13.87;;;;;;;;;;4991767;28;20470;-94
2021/04/02 06:23:22;;;;;;;23.53;15.93;;;;;;;;;;4984276;28;20440;-95
2021/04/02 06:25:49;;;;;;;25.87;18.17;;;;;;;;;;4998905;28;20460;-94
2021/04/02 06:28:20;;;;;;;23.60;17.10;;;;;;;;;;4989711;28;20465;-94
2021/04/02 06:30:49;;;;;;;30.03;19.70;;;;;;;;;;4990720;28;20469;-94
2021/04/02 06:33:16;;;;;;;25.80;18.80;;;;;;;;;;4988264;28;20462;-95
2021/04/02 06:35:43;;;;;;;33.97;19.63;;;;;;;;;;4988636;28;20478;-93
2021/04/02 06:38:10;;;;;;;27.53;19.70;;;;;;;;;;4986293;28;20505;-92
2021/04/02 06:40:36;;;;;;;30.93;19.80;;;;;;;;;;4989764;28;20511;-95
2021/04/02 06:43:03;;;;;;;25.80;19.00;;;;;;;;;;4979910;28;20458;-93
2021/04/02 06:45:29;;;;;;;28.50;20.30;;;;;;;;;;4992864;28;21213;-93
2021/04/02 06:48:07;;;;;;;31.20;20.80;;;;;;;;;;4987440;28;20831;-92
2021/04/02 06:50:33;;;;;;;32.60;23.57;;;;;;;;;;4996445;28;20452;-93
2021/04/02 06:53:01;;;;;;;30.80;21.80;;;;;;;;;;4993471;28;20456;-90
2021/04/02 06:55:29;;;;;;;34.30;24.83;;;;;;;;;;4988313;28;20477;-90
2021/04/02 06:57:56;;;;;;;36.40;24.00;;;;;;;;;;4995356;28;20456;-91
2021/04/02 07:00:23;;;;;;;32.17;22.93;;;;;;;;;;4983880;28;20449;-91
2021/04/02 07:02:49;;;;;;;30.90;22.63;;;;;;;;;;4993277;28;20473;-90
2021/04/02 07:05:17;;;;;;;32.20;23.67;;;;;;;;;;4980961;28;20449;-91
2021/04/02 07:07:44;;;;;;;34.33;23.00;;;;;;;;;;4991073;28;20481;-91
2021/04/02 07:10:15;;;;;;;27.77;20.70;;;;;;;;;;4986147;28;20459;-91
2021/04/02 07:12:45;;;;;;;27.83;20.70;;;;;;;;;;4986091;28;20481;-91
2021/04/02 07:15:12;;;;;;;34.80;19.43;;;;;;;;;;4986678;28;20513;-91
2021/04/02 07:17:38;;;;;;;26.83;18.27;;;;;;;;;;4993083;28;20461;-91
2021/04/02 07:20:05;;;;;;;23.23;19.30;;;;;;;;;;4996952;28;20503;-91
2021/04/02 07:22:31;;;;;;;25.00;18.87;;;;;;;;;;4993071;28;20473;-91
2021/04/02 07:24:58;;;;;;;29.37;19.43;;;;;;;;;;4995477;28;20480;-91
2021/04/02 07:27:25;;;;;;;25.83;18.20;;;;;;;;;;4995490;28;20961;-90
2021/04/02 07:29:53;;;;;;;27.13;20.17;;;;;;;;;;4991623;28;20467;-91
2021/04/02 07:32:19;;;;;;;31.33;19.30;;;;;;;;;;4995197;28;20524;-93
2021/04/02 07:34:45;;;;;;;35.47;21.20;;;;;;;;;;4994660;28;20458;-91
2021/04/02 07:37:12;;;;;;;24.30;19.40;;;;;;;;;;4993919;28;20467;-92
2021/04/02 07:39:38;;;;;;;28.43;19.87;;;;;;;;;;4992576;28;20499;-91
2021/04/02 07:42:05;;;;;;;24.27;18.90;;;;;;;;;;4988760;28;20471;-91
2021/04/02 07:44:35;;;;;;;28.70;19.50;;;;;;;;;;4998998;28;20452;-92
2021/04/02 07:47:07;;;;;;;27.07;19.53;;;;;;;;;;4990508;28;20492;-92
2021/04/02 07:49:34;;;;;;;26.83;19.70;;;;;;;;;;4992665;28;20508;-92
2021/04/02 07:52:00;;;;;;;32.97;20.33;;;;;;;;;;4990369;28;20460;-92
2021/04/02 07:54:31;;;;;;;25.10;19.20;;;;;;;;;;4991056;28;20445;-92
2021/04/02 07:56:57;;;;;;;28.30;20.13;;;;;;;;;;4991856;28;20454;-92
2021/04/02 07:59:36;;;;;;;26.20;20.63;;;;;;;;;;4993243;28;21285;-92
2021/04/02 08:02:04;;;;;;;27.80;21.03;;;;;;;;;;4989835;28;20483;-92
2021/04/02 08:04:37;;;;;;;56.70;22.90;;;;;;;;;;5000115;28;20437;-92
2021/04/02 08:07:04;;;;;;;27.43;19.53;;;;;;;;;;4982761;28;20465;-92
2021/04/02 08:09:31;;;;;;;31.00;20.63;;;;;;;;;;4980813;28;20963;-91
2021/04/02 08:11:57;;;;;;;26.03;20.57;;;;;;;;;;4987164;28;20541;-91
2021/04/02 08:14:31;;;;;;;29.33;19.57;;;;;;;;;;4993382;28;20458;-91
2021/04/02 08:16:57;;;;;;;30.77;20.00;;;;;;;;;;4988658;28;20524;-92
2021/04/02 08:19:27;;;;;;;29.17;16.87;;;;;;;;;;4983590;28;20493;-92
2021/04/02 08:21:54;;;;;;;21.77;16.83;;;;;;;;;;4984950;28;20469;-94
2021/04/02 08:24:22;;;;;;;23.93;19.10;;;;;;;;;;4991079;28;20479;-92
2021/04/02 08:26:48;;;;;;;21.20;16.63;;;;;;;;;;4990398;28;20489;-93
2021/04/02 08:29:15;;;;;;;27.17;18.00;;;;;;;;;;4990248;28;20871;-92
2021/04/02 08:31:42;;;;;;;25.73;16.87;;;;;;;;;;4986103;28;20796;-92
2021/04/02 08:34:09;;;;;;;24.50;17.13;;;;;;;;;;4987106;28;20456;-93
2021/04/02 08:36:35;;;;;;;21.50;17.97;;;;;;;;;;4986543;28;20464;-92
2021/04/02 08:39:02;;;;;;;20.10;15.97;;;;;;;;;;4988357;28;20503;-92
2021/04/02 08:41:30;;;;;;;19.50;16.60;;;;;;;;;;4995733;28;20998;-92
2021/04/02 08:43:57;;;;;;;21.33;15.00;;;;;;;;;;4992492;28;20476;-94
2021/04/02 08:46:33;;;;;;;16.53;13.83;;;;;;;;;;4988950;28;20453;-93
2021/04/02 08:48:59;;;;;;;24.70;15.53;;;;;;;;;;4992918;28;23415;-92
2021/04/02 08:51:25;;;;;;;21.73;15.43;;;;;;;;;;4988247;28;20826;-93
2021/04/02 08:53:51;;;;;;;16.27;14.37;;;;;;;;;;4995256;28;20975;-94
2021/04/02 08:56:19;;;;;;;18.33;13.70;;;;;;;;;;5011671;28;20465;-95
2021/04/02 08:58:45;;;;;;;20.80;14.80;;;;;;;;;;5000555;28;20486;-93
2021/04/02 09:01:12;;;;;;;18.43;14.27;;;;;;;;;;4991436;28;20457;-92
2021/04/02 09:03:38;;;;;;;16.70;14.60;;;;;;;;;;4994478;28;20461;-92
2021/04/02 09:06:04;;;;;;;17.00;14.13;;;;;;;;;;4994092;28;20456;-92
2021/04/02 09:08:33;;;;;;;110.97;20.70;;;;;;;;;;4990851;28;20476;-92
2021/04/02 09:11:00;;;;;;;18.77;14.20;;;;;;;;;;4993576;28;20463;-93
2021/04/02 09:13:28;;;;;;;16.07;14.53;;;;;;;;;;4994259;28;20480;-93
2021/04/02 09:15:54;;;;;;;16.53;13.03;;;;;;;;;;4993115;28;20463;-92
2021/04/02 09:18:27;;;;;;;17.87;13.90;;;;;;;;;;4992617;28;20478;-92
2021/04/02 09:20:53;;;;;;;21.73;15.23;;;;;;;;;;4991720;28;20449;-92
2021/04/02 09:23:19;;;;;;;17.53;14.50;;;;;;;;;;4992958;28;20455;-93
2021/04/02 09:25:48;;;;;;;20.40;14.90;;;;;;;;;;4990779;28;20483;-93
2021/04/02 09:28:14;;;;;;;29.93;18.57;;;;;;;;;;4997828;28;20484;-93
2021/04/02 09:30:44;;;;;;;20.73;18.70;;;;;;;;;;4995255;28;20465;-92
2021/04/02 09:33:10;;;;;;;23.10;18.83;;;;;;;;;;4989405;28;20465;-92
2021/04/02 09:35:37;;;;;;;28.43;25.50;;;;;;;;;;4956415;28;20477;-93
2021/04/02 09:38:03;;;;;;;23.80;21.60;;;;;;;;;;4997200;28;20466;-92
2021/04/02 09:40:30;;;;;;;22.63;20.20;;;;;;;;;;4990914;28;20456;-93
2021/04/02 09:42:58;;;;;;;21.10;18.90;;;;;;;;;;4991874;28;20463;-93
2021/04/02 09:45:26;;;;;;;20.40;18.30;;;;;;;;;;4991897;28;20464;-92
2021/04/02 09:47:53;;;;;;;22.80;19.47;;;;;;;;;;4999695;28;20979;-93
2021/04/02 09:50:19;;;;;;;25.10;20.60;;;;;;;;;;4992596;28;21167;-93
2021/04/02 09:52:46;;;;;;;25.27;18.57;;;;;;;;;;4997984;28;20470;-92
2021/04/02 09:55:12;;;;;;;18.93;16.63;;;;;;;;;;4993604;28;20461;-92
2021/04/02 09:57:39;;;;;;;18.47;16.53;;;;;;;;;;4990571;28;20456;-92
2021/04/02 10:00:05;;;;;;;20.37;18.20;;;;;;;;;;4993392;28;20491;-91
2021/04/02 10:02:33;;;;;;;16.97;15.17;;;;;;;;;;4991884;28;20949;-93
2021/04/02 10:05:00;;;;;;;16.80;15.20;;;;;;;;;;5000189;28;20488;-95
2021/04/02 10:07:26;;;;;;;20.10;16.80;;;;;;;;;;4991172;28;20472;-93
2021/04/02 10:09:52;;;;;;;18.80;14.63;;;;;;;;;;4993904;28;20475;-91
2021/04/02 10:12:18;;;;;;;25.30;14.60;;;;;;;;;;4989613;28;20465;-92
2021/04/02 10:14:44;;;;;;;16.23;14.53;;;;;;;;;;4997542;28;20463;-92
2021/04/02 10:17:18;;;;;;;15.00;13.07;;;;;;;;;;4988747;28;20445;-92
2021/04/02 10:19:44;;;;;;;16.27;14.50;;;;;;;;;;4997000;28;20485;-96
2021/04/02 10:22:11;;;;;;;14.10;12.57;;;;;;;;;;4989986;28;20480;-94
2021/04/02 10:24:37;;;;;;;13.00;11.80;;;;;;;;;;4999308;28;20456;-94
2021/04/02 10:27:03;;;;;;;13.03;11.83;;;;;;;;;;4994108;28;20465;-92
2021/04/02 10:29:31;;;;;;;17.43;13.23;;;;;;;;;;4999275;28;20465;-90
2021/04/02 10:31:57;;;;;;;14.70;12.90;;;;;;;;;;4994770;28;20526;-91
2021/04/02 10:34:24;;;;;;;14.87;11.80;;;;;;;;;;4995478;28;20520;-91
2021/04/02 10:36:50;;;;;;;12.73;11.27;;;;;;;;;;4986226;28;20456;-91
2021/04/02 10:39:17;;;;;;;16.50;11.87;;;;;;;;;;5001048;28;21112;-92
2021/04/02 10:41:43;;;;;;;13.53;11.93;;;;;;;;;;4999544;28;20451;-92
2021/04/02 10:44:09;;;;;;;15.40;11.60;;;;;;;;;;4988014;28;20457;-93
2021/04/02 10:46:35;;;;;;;12.13;11.00;;;;;;;;;;4993865;28;20479;-91
2021/04/02 10:49:01;;;;;;;15.23;13.20;;;;;;;;;;4996389;28;20457;-90
2021/04/02 10:51:27;;;;;;;12.43;11.33;;;;;;;;;;4991838;28;20464;-90
2021/04/02 10:54:00;;;;;;;12.80;11.50;;;;;;;;;;4993577;28;20480;-91
2021/04/02 10:56:27;;;;;;;12.10;10.90;;;;;;;;;;4992703;28;20471;-91
2021/04/02 10:58:53;;;;;;;13.70;10.90;;;;;;;;;;4992006;28;20485;-91
2021/04/02 11:01:19;;;;;;;12.50;11.27;;;;;;;;;;4996983;28;20449;-90
2021/04/02 11:03:45;;;;;;;16.03;11.90;;;;;;;;;;4994770;28;20523;-92
2021/04/02 11:06:11;;;;;;;10.63;9.53;;;;;;;;;;4990645;28;20510;-91
2021/04/02 11:08:37;;;;;;;11.23;9.57;;;;;;;;;;4991636;28;20476;-92
2021/04/02 11:11:03;;;;;;;10.37;9.37;;;;;;;;;;4994995;28;20456;-91
2021/04/02 11:13:30;;;;;;;11.60;10.40;;;;;;;;;;4991455;28;20449;-90
2021/04/02 11:15:56;;;;;;;11.13;9.90;;;;;;;;;;4995851;28;20466;-93
2021/04/02 11:18:22;;;;;;;21.40;8.40;;;;;;;;;;4994918;28;20521;-96
2021/04/02 11:20:48;;;;;;;8.77;7.90;;;;;;;;;;4985344;28;20451;-94
2021/04/02 11:23:17;;;;;;;10.10;7.80;;;;;;;;;;5001377;28;20453;-93
2021/04/02 11:25:44;;;;;;;7.73;7.03;;;;;;;;;;4993882;28;20485;-94
2021/04/02 11:28:10;;;;;;;8.50;7.70;;;;;;;;;;4986316;28;20439;-92
2021/04/02 11:30:46;;;;;;;9.47;7.87;;;;;;;;;;5003888;28;20436;-95
2021/04/02 11:33:12;;;;;;;8.30;7.50;;;;;;;;;;5012641;28;20459;-93
2021/04/02 11:35:41;;;;;;;8.50;7.73;;;;;;;;;;5000092;28;20567;-96
2021/04/02 11:38:08;;;;;;;8.70;7.57;;;;;;;;;;5008029;28;20453;-94
2021/04/02 11:40:37;;;;;;;22.63;10.17;;;;;;;;;;4990165;28;20497;-96
2021/04/02 11:43:11;;;;;;;15.23;8.93;;;;;;;;;;5000367;28;20477;-94
2021/04/02 11:45:39;;;;;;;18.43;9.70;;;;;;;;;;5000756;28;20448;-95
2021/04/02 11:48:08;;;;;;;14.20;8.90;;;;;;;;;;4989179;28;20456;-96
2021/04/02 11:50:34;;;;;;;11.27;8.37;;;;;;;;;;5020356;23;20514;-95
2021/04/02 11:53:03;;;;;;;9.97;8.77;;;;;;;;;;5008809;28;20464;-96
2021/04/02 11:55:34;;;;;;;12.43;8.80;;;;;;;;;;5017921;28;20459;-96
2021/04/02 11:58:00;;;;;;;14.73;9.27;;;;;;;;;;5006548;28;20466;-95
2021/04/02 12:00:27;;;;;;;12.03;9.07;;;;;;;;;;4998453;28;20495;-91
2021/04/02 12:02:55;;;;;;;11.43;9.43;;;;;;;;;;5003637;28;20440;-96
2021/04/02 12:05:24;;;;;;;11.10;9.33;;;;;;;;;;5006259;28;20452;-93
2021/04/02 12:07:51;;;;;;;13.57;9.03;;;;;;;;;;5002280;28;20535;-94
2021/04/02 12:10:18;;;;;;;12.00;10.10;;;;;;;;;;5008451;28;20482;-93
2021/04/02 12:12:46;;;;;;;13.90;9.90;;;;;;;;;;5016936;28;20965;-95
2021/04/02 12:15:14;;;;;;;16.03;10.30;;;;;;;;;;5017615;28;20459;-94
2021/04/02 12:17:41;;;;;;;17.77;10.20;;;;;;;;;;5015249;28;20509;-93
2021/04/02 12:20:10;;;;;;;10.07;9.07;;;;;;;;;;5008560;28;20522;-94
2021/04/02 12:22:36;;;;;;;10.57;9.07;;;;;;;;;;5011370;28;20459;-92
2021/04/02 12:25:03;;;;;;;12.80;10.57;;;;;;;;;;5017108;28;20526;-93
2021/04/02 12:27:29;;;;;;;11.00;9.83;;;;;;;;;;5014011;28;20450;-93
2021/04/02 12:29:55;;;;;;;10.13;9.17;;;;;;;;;;5016789;28;20459;-93
2021/04/02 12:32:22;;;;;;;12.70;10.00;;;;;;;;;;5013951;28;20451;-92
2021/04/02 12:34:48;;;;;;;10.57;9.20;;;;;;;;;;5018499;28;20576;-91
2021/04/02 12:37:15;;;;;;;11.10;10.00;;;;;;;;;;5018195;28;20452;-93
2021/04/02 12:39:41;;;;;;;11.23;9.93;;;;;;;;;;5018104;28;20494;-92
2021/04/02 12:42:07;;;;;;;10.60;9.50;;;;;;;;;;5013203;28;20448;-92
2021/04/02 12:44:33;;;;;;;9.77;8.87;;;;;;;;;;5020365;28;20448;-94
2021/04/02 12:46:59;;;;;;;10.43;9.10;;;;;;;;;;5016071;28;20460;-93
2021/04/02 12:49:28;;;;;;;12.30;9.20;;;;;;;;;;5014319;28;21020;-96
2021/04/02 12:51:54;;;;;;;11.13;9.67;;;;;;;;;;5016379;28;20851;-93
2021/04/02 12:54:21;;;;;;;13.00;9.70;;;;;;;;;;5009543;28;20457;-92
2021/04/02 12:56:47;;;;;;;10.23;9.23;;;;;;;;;;5015222;28;20526;-94
2021/04/02 12:59:13;;;;;;;10.40;9.40;;;;;;;;;;5011342;28;20492;-96
2021/04/02 13:01:39;;;;;;;10.10;9.20;;;;;;;;;;5013288;28;20500;-95
2021/04/02 13:04:06;;;;;;;11.20;9.40;;;;;;;;;;5007397;28;20487;-94
2021/04/02 13:06:32;;;;;;;9.40;8.50;;;;;;;;;;5012542;28;20460;-91
2021/04/02 13:08:58;;;;;;;9.80;8.90;;;;;;;;;;5005911;28;20621;-96
2021/04/02 13:11:25;;;;;;;10.90;9.90;;;;;;;;;;5013250;28;20456;-91
2021/04/02 13:13:51;;;;;;;14.13;9.27;;;;;;;;;;5016344;28;20453;-94
2021/04/02 13:16:17;;;;;;;11.90;8.60;;;;;;;;;;5006323;28;20456;-93
2021/04/02 13:18:43;;;;;;;9.80;8.83;;;;;;;;;;5016398;28;20492;-96
2021/04/02 13:21:09;;;;;;;10.37;9.30;;;;;;;;;;5013897;28;20459;-92
2021/04/02 13:23:35;;;;;;;9.90;8.90;;;;;;;;;;5008177;28;20535;-92
2021/04/02 13:26:01;;;;;;;10.70;9.60;;;;;;;;;;5015646;28;20452;-93
2021/04/02 13:28:28;;;;;;;10.50;9.40;;;;;;;;;;5006988;28;20472;-93
2021/04/02 13:30:54;;;;;;;11.43;9.80;;;;;;;;;;4998035;28;20494;-92
2021/04/02 13:33:20;;;;;;;10.80;9.70;;;;;;;;;;5015084;28;20455;-92
2021/04/02 13:35:46;;;;;;;10.17;9.23;;;;;;;;;;5011177;28;20460;-93
2021/04/02 13:38:12;;;;;;;10.00;9.10;;;;;;;;;;5014174;28;20455;-96
2021/04/02 13:40:38;;;;;;;10.67;9.67;;;;;;;;;;5015073;28;20531;-94
2021/04/02 13:43:05;;;;;;;13.37;9.83;;;;;;;;;;5018519;28;20459;-91
2021/04/02 13:45:40;;;;;;;10.30;9.40;;;;;;;;;;5005923;28;21783;-96
2021/04/02 13:48:06;;;;;;;10.67;9.63;;;;;;;;;;5009122;28;20462;-94
2021/04/02 13:50:34;;;;;;;11.27;10.27;;;;;;;;;;5009321;28;20498;-96
2021/04/02 13:53:00;;;;;;;10.30;9.50;;;;;;;;;;5003846;28;20452;-94
2021/04/02 13:55:27;;;;;;;10.40;9.40;;;;;;;;;;5015485;28;20453;-94
2021/04/02 13:57:53;;;;;;;10.70;9.70;;;;;;;;;;5009034;28;20476;-94
2021/04/02 14:00:20;;;;;;;11.13;10.03;;;;;;;;;;5007684;28;20496;-91
2021/04/02 14:02:47;;;;;;;10.93;9.93;;;;;;;;;;5013264;28;20461;-90
2021/04/02 14:05:14;;;;;;;10.33;9.37;;;;;;;;;;5028215;28;20470;-92
2021/04/02 14:07:40;;;;;;;9.97;9.00;;;;;;;;;;5003184;28;20524;-94
2021/04/02 14:10:07;;;;;;;11.17;10.17;;;;;;;;;;5012355;28;20468;-96
2021/04/02 14:12:36;;;;;;;10.37;9.57;;;;;;;;;;5011305;28;20466;-96
2021/04/02 14:15:04;;;;;;;9.80;9.00;;;;;;;;;;5023403;28;20455;-95
2021/04/02 14:17:30;;;;;;;9.80;8.90;;;;;;;;;;5015520;28;20471;-93
2021/04/02 14:19:57;;;;;;;10.20;9.30;;;;;;;;;;5008808;28;20574;-94
2021/04/02 14:22:23;;;;;;;9.80;8.90;;;;;;;;;;5006186;28;20454;-94